sensor_id;sensor_type;location;lat;lon;timestamp;temperature;humidity
28520;DHT22;15732;48.534;20.382;2023-03-12T00:01:30;5.10;98.90
28520;DHT22;15732;48.534;20.382;2023-03-12T00:04:01;5.10;99.90
28520;DHT22;15732;48.534;20.382;2023-03-12T00:06:28;5.10;99.90
28520;DHT22;15732;48.534;20.382;2023-03-12T00:08:55;5.00;99.50
28520;DHT22;15732;48.534;20.382;2023-03-12T00:11:22;5.00;99.70
28520;DHT22;15732;48.534;20.382;2023-03-12T00:13:51;4.90;98.90
28520;DHT22;15732;48.534;20.382;2023-03-12T00:16:18;4.90;99.20
28520;DHT22;15732;48.534;20.382;2023-03-12T00:18:48;4.80;99.20
28520;DHT22;15732;48.534;20.382;2023-03-12T00:21:15;4.80;99.90
28520;DHT22;15732;48.534;20.382;2023-03-12T00:23:43;4.80;99.90
28520;DHT22;15732;48.534;20.382;2023-03-12T00:26:13;4.70;99.80
28520;DHT22;15732;48.534;20.382;2023-03-12T00:28:44;4.70;99.90
28520;DHT22;15732;48.534;20.382;2023-03-12T00:31:23;4.60;99.60
28520;DHT22;15732;48.534;20.382;2023-03-12T00:33:56;4.60;99.90
28520;DHT22;15732;48.534;20.382;2023-03-12T00:36:29;4.60;99.90
28520;DHT22;15732;48.534;20.382;2023-03-12T00:38:58;4.50;99.90
28520;DHT22;15732;48.534;20.382;2023-03-12T00:41:26;4.60;99.90
28520;DHT22;15732;48.534;20.382;2023-03-12T00:43:53;4.60;99.90
28520;DHT22;15732;48.534;20.382;2023-03-12T00:46:20;4.60;99.90
28520;DHT22;15732;48.534;20.382;2023-03-12T00:48:48;4.70;99.90
28520;DHT22;15732;48.534;20.382;2023-03-12T00:51:15;4.70;99.90
28520;DHT22;15732;48.534;20.382;2023-03-12T00:53:42;4.60;99.90
28520;DHT22;15732;48.534;20.382;2023-03-12T00:56:09;4.60;99.90
28520;DHT22;15732;48.534;20.382;2023-03-12T00:58:37;4.60;99.90
28520;DHT22;15732;48.534;20.382;2023-03-12T01:01:04;4.50;99.90
28520;DHT22;15732;48.534;20.382;2023-03-12T01:03:31;4.40;99.90
28520;DHT22;15732;48.534;20.382;2023-03-12T01:05:58;4.40;99.90
28520;DHT22;15732;48.534;20.382;2023-03-12T01:08:29;4.40;99.90
28520;DHT22;15732;48.534;20.382;2023-03-12T01:10:57;4.40;99.90
28520;DHT22;15732;48.534;20.382;2023-03-12T01:13:24;4.40;99.90
28520;DHT22;15732;48.534;20.382;2023-03-12T01:15:52;4.40;99.90
28520;DHT22;15732;48.534;20.382;2023-03-12T01:18:19;4.40;99.90
28520;DHT22;15732;48.534;20.382;2023-03-12T01:20:47;4.40;99.90
28520;DHT22;15732;48.534;20.382;2023-03-12T01:23:19;4.40;99.90
28520;DHT22;15732;48.534;20.382;2023-03-12T01:25:46;4.30;99.90
28520;DHT22;15732;48.534;20.382;2023-03-12T01:28:13;4.30;99.90
28520;DHT22;15732;48.534;20.382;2023-03-12T01:30:40;4.20;99.90
28520;DHT22;15732;48.534;20.382;2023-03-12T01:33:08;4.10;99.90
28520;DHT22;15732;48.534;20.382;2023-03-12T01:35:36;4.10;99.90
28520;DHT22;15732;48.534;20.382;2023-03-12T01:38:12;4.10;99.90
28520;DHT22;15732;48.534;20.382;2023-03-12T01:40:59;4.20;99.90
28520;DHT22;15732;48.534;20.382;2023-03-12T01:43:32;4.20;99.90
28520;DHT22;15732;48.534;20.382;2023-03-12T01:48:29;4.10;99.90
28520;DHT22;15732;48.534;20.382;2023-03-12T01:51:02;4.10;99.90
28520;DHT22;15732;48.534;20.382;2023-03-12T01:53:30;4.00;99.90
28520;DHT22;15732;48.534;20.382;2023-03-12T01:55:59;3.80;99.90
28520;DHT22;15732;48.534;20.382;2023-03-12T01:58:27;3.80;99.90
28520;DHT22;15732;48.534;20.382;2023-03-12T02:00:57;3.70;99.90
28520;DHT22;15732;48.534;20.382;2023-03-12T02:03:24;3.70;99.90
28520;DHT22;15732;48.534;20.382;2023-03-12T02:05:55;3.70;99.90
28520;DHT22;15732;48.534;20.382;2023-03-12T02:08:25;3.70;99.90
28520;DHT22;15732;48.534;20.382;2023-03-12T02:10:53;3.80;99.90
28520;DHT22;15732;48.534;20.382;2023-03-12T02:13:20;3.80;99.90
28520;DHT22;15732;48.534;20.382;2023-03-12T02:15:51;3.80;99.90
28520;DHT22;15732;48.534;20.382;2023-03-12T02:18:18;3.80;99.90
28520;DHT22;15732;48.534;20.382;2023-03-12T02:21:16;3.70;99.90
28520;DHT22;15732;48.534;20.382;2023-03-12T02:26:16;3.60;99.90
28520;DHT22;15732;48.534;20.382;2023-03-12T02:28:50;3.30;99.90
28520;DHT22;15732;48.534;20.382;2023-03-12T02:31:19;3.30;99.90
28520;DHT22;15732;48.534;20.382;2023-03-12T02:33:48;3.30;99.90
28520;DHT22;15732;48.534;20.382;2023-03-12T02:36:21;3.30;99.90
28520;DHT22;15732;48.534;20.382;2023-03-12T02:38:50;3.30;99.90
28520;DHT22;15732;48.534;20.382;2023-03-12T02:46:23;3.20;99.90
28520;DHT22;15732;48.534;20.382;2023-03-12T02:48:50;3.10;99.90
28520;DHT22;15732;48.534;20.382;2023-03-12T02:51:19;3.10;99.90
28520;DHT22;15732;48.534;20.382;2023-03-12T02:53:50;3.20;99.90
28520;DHT22;15732;48.534;20.382;2023-03-12T02:56:25;3.20;99.90
28520;DHT22;15732;48.534;20.382;2023-03-12T02:58:51;3.10;99.90
28520;DHT22;15732;48.534;20.382;2023-03-12T03:01:20;3.10;99.90
28520;DHT22;15732;48.534;20.382;2023-03-12T03:03:51;3.10;99.90
28520;DHT22;15732;48.534;20.382;2023-03-12T03:06:17;3.10;99.90
28520;DHT22;15732;48.534;20.382;2023-03-12T03:08:45;3.10;99.90
28520;DHT22;15732;48.534;20.382;2023-03-12T03:11:12;3.10;99.90
28520;DHT22;15732;48.534;20.382;2023-03-12T03:13:40;2.90;99.90
28520;DHT22;15732;48.534;20.382;2023-03-12T03:16:07;2.90;99.90
28520;DHT22;15732;48.534;20.382;2023-03-12T03:18:35;2.80;99.90
28520;DHT22;15732;48.534;20.382;2023-03-12T03:21:08;2.80;99.90
28520;DHT22;15732;48.534;20.382;2023-03-12T03:23:48;2.70;99.90
28520;DHT22;15732;48.534;20.382;2023-03-12T03:26:18;2.70;99.90
28520;DHT22;15732;48.534;20.382;2023-03-12T03:28:45;2.70;99.90
28520;DHT22;15732;48.534;20.382;2023-03-12T03:31:12;2.80;99.90
28520;DHT22;15732;48.534;20.382;2023-03-12T03:33:43;2.80;99.90
28520;DHT22;15732;48.534;20.382;2023-03-12T03:36:11;2.80;99.90
28520;DHT22;15732;48.534;20.382;2023-03-12T03:38:41;2.80;99.90
28520;DHT22;15732;48.534;20.382;2023-03-12T03:41:12;2.90;99.90
28520;DHT22;15732;48.534;20.382;2023-03-12T03:43:40;2.80;99.90
28520;DHT22;15732;48.534;20.382;2023-03-12T03:46:08;2.70;99.90
28520;DHT22;15732;48.534;20.382;2023-03-12T03:48:36;2.70;99.90
28520;DHT22;15732;48.534;20.382;2023-03-12T03:51:08;2.60;99.90
28520;DHT22;15732;48.534;20.382;2023-03-12T03:53:36;2.60;99.90
28520;DHT22;15732;48.534;20.382;2023-03-12T03:56:05;2.60;99.90
28520;DHT22;15732;48.534;20.382;2023-03-12T03:58:33;2.50;99.90
28520;DHT22;15732;48.534;20.382;2023-03-12T04:01:01;2.50;99.90
28520;DHT22;15732;48.534;20.382;2023-03-12T04:03:28;2.50;99.90
28520;DHT22;15732;48.534;20.382;2023-03-12T04:05:59;2.50;99.90
28520;DHT22;15732;48.534;20.382;2023-03-12T04:08:27;2.40;99.90
28520;DHT22;15732;48.534;20.382;2023-03-12T04:10:54;2.40;99.90
28520;DHT22;15732;48.534;20.382;2023-03-12T04:13:22;2.30;99.90
28520;DHT22;15732;48.534;20.382;2023-03-12T04:15:52;2.30;99.90
28520;DHT22;15732;48.534;20.382;2023-03-12T04:18:23;2.20;99.90
28520;DHT22;15732;48.534;20.382;2023-03-12T04:20:51;2.10;99.90
28520;DHT22;15732;48.534;20.382;2023-03-12T04:23:17;2.10;99.90
28520;DHT22;15732;48.534;20.382;2023-03-12T04:25:45;2.10;99.90
28520;DHT22;15732;48.534;20.382;2023-03-12T04:28:12;2.00;99.90
28520;DHT22;15732;48.534;20.382;2023-03-12T04:30:39;2.00;99.90
28520;DHT22;15732;48.534;20.382;2023-03-12T04:33:07;2.10;99.90
28520;DHT22;15732;48.534;20.382;2023-03-12T04:35:34;2.10;99.90
28520;DHT22;15732;48.534;20.382;2023-03-12T04:38:02;2.10;99.90
28520;DHT22;15732;48.534;20.382;2023-03-12T04:40:29;2.20;99.90
28520;DHT22;15732;48.534;20.382;2023-03-12T04:42:57;2.20;99.90
28520;DHT22;15732;48.534;20.382;2023-03-12T04:45:28;2.20;99.90
28520;DHT22;15732;48.534;20.382;2023-03-12T04:47:56;2.20;99.90
28520;DHT22;15732;48.534;20.382;2023-03-12T04:50:23;2.20;99.90
28520;DHT22;15732;48.534;20.382;2023-03-12T04:52:51;2.20;99.90
28520;DHT22;15732;48.534;20.382;2023-03-12T04:55:18;2.20;99.90
28520;DHT22;15732;48.534;20.382;2023-03-12T04:57:46;2.20;99.90
28520;DHT22;15732;48.534;20.382;2023-03-12T05:00:14;2.20;99.90
28520;DHT22;15732;48.534;20.382;2023-03-12T05:02:41;2.10;99.90
28520;DHT22;15732;48.534;20.382;2023-03-12T05:05:10;2.10;99.90
28520;DHT22;15732;48.534;20.382;2023-03-12T05:07:37;2.10;99.90
28520;DHT22;15732;48.534;20.382;2023-03-12T05:10:05;2.10;99.90
28520;DHT22;15732;48.534;20.382;2023-03-12T05:12:33;2.10;99.90
28520;DHT22;15732;48.534;20.382;2023-03-12T05:15:05;2.00;99.90
28520;DHT22;15732;48.534;20.382;2023-03-12T05:17:34;1.90;99.90
28520;DHT22;15732;48.534;20.382;2023-03-12T05:20:01;1.80;99.90
28520;DHT22;15732;48.534;20.382;2023-03-12T05:22:31;1.80;99.90
28520;DHT22;15732;48.534;20.382;2023-03-12T05:25:02;1.80;99.90
28520;DHT22;15732;48.534;20.382;2023-03-12T05:27:29;1.80;99.90
28520;DHT22;15732;48.534;20.382;2023-03-12T05:29:56;1.80;99.90
28520;DHT22;15732;48.534;20.382;2023-03-12T05:32:23;1.60;99.90
28520;DHT22;15732;48.534;20.382;2023-03-12T05:34:55;1.60;99.90
28520;DHT22;15732;48.534;20.382;2023-03-12T05:37:22;1.50;99.90
28520;DHT22;15732;48.534;20.382;2023-03-12T05:39:51;1.60;99.90
28520;DHT22;15732;48.534;20.382;2023-03-12T05:42:19;1.70;99.90
28520;DHT22;15732;48.534;20.382;2023-03-12T05:44:46;1.80;99.90
28520;DHT22;15732;48.534;20.382;2023-03-12T05:47:17;1.90;99.90
28520;DHT22;15732;48.534;20.382;2023-03-12T05:49:48;1.90;99.90
28520;DHT22;15732;48.534;20.382;2023-03-12T05:52:16;1.90;99.90
28520;DHT22;15732;48.534;20.382;2023-03-12T05:54:43;1.90;99.90
28520;DHT22;15732;48.534;20.382;2023-03-12T05:57:10;1.90;99.90
28520;DHT22;15732;48.534;20.382;2023-03-12T05:59:38;2.00;99.90
28520;DHT22;15732;48.534;20.382;2023-03-12T06:02:06;2.00;99.90
28520;DHT22;15732;48.534;20.382;2023-03-12T06:04:33;2.00;99.90
28520;DHT22;15732;48.534;20.382;2023-03-12T06:07:00;2.00;99.90
28520;DHT22;15732;48.534;20.382;2023-03-12T06:09:28;2.00;99.90
28520;DHT22;15732;48.534;20.382;2023-03-12T06:11:55;2.00;99.90
28520;DHT22;15732;48.534;20.382;2023-03-12T06:14:26;2.10;99.90
28520;DHT22;15732;48.534;20.382;2023-03-12T06:16:58;2.10;99.90
28520;DHT22;15732;48.534;20.382;2023-03-12T06:19:25;2.00;99.90
28520;DHT22;15732;48.534;20.382;2023-03-12T06:21:53;2.10;99.90
28520;DHT22;15732;48.534;20.382;2023-03-12T06:24:20;2.10;99.90
28520;DHT22;15732;48.534;20.382;2023-03-12T06:26:47;2.10;99.90
28520;DHT22;15732;48.534;20.382;2023-03-12T06:29:14;2.10;99.90
28520;DHT22;15732;48.534;20.382;2023-03-12T06:31:41;2.10;99.90
28520;DHT22;15732;48.534;20.382;2023-03-12T06:34:09;2.20;99.90
28520;DHT22;15732;48.534;20.382;2023-03-12T06:36:36;2.30;99.90
28520;DHT22;15732;48.534;20.382;2023-03-12T06:39:07;2.20;99.90
28520;DHT22;15732;48.534;20.382;2023-03-12T06:41:35;2.20;99.90
28520;DHT22;15732;48.534;20.382;2023-03-12T06:44:02;2.00;99.90
28520;DHT22;15732;48.534;20.382;2023-03-12T06:46:31;2.10;99.90
28520;DHT22;15732;48.534;20.382;2023-03-12T06:48:58;2.10;99.90
28520;DHT22;15732;48.534;20.382;2023-03-12T06:51:25;2.20;99.90
28520;DHT22;15732;48.534;20.382;2023-03-12T06:53:52;2.30;99.90
28520;DHT22;15732;48.534;20.382;2023-03-12T06:56:19;2.50;99.90
28520;DHT22;15732;48.534;20.382;2023-03-12T06:58:47;2.60;99.90
28520;DHT22;15732;48.534;20.382;2023-03-12T07:01:18;2.60;99.90
28520;DHT22;15732;48.534;20.382;2023-03-12T07:03:49;2.60;99.90
28520;DHT22;15732;48.534;20.382;2023-03-12T07:06:19;2.70;99.90
28520;DHT22;15732;48.534;20.382;2023-03-12T07:08:50;2.80;99.90
28520;DHT22;15732;48.534;20.382;2023-03-12T07:11:22;3.00;99.90
28520;DHT22;15732;48.534;20.382;2023-03-12T07:13:49;3.10;99.90
28520;DHT22;15732;48.534;20.382;2023-03-12T07:16:21;3.20;99.90
28520;DHT22;15732;48.534;20.382;2023-03-12T07:18:48;3.20;99.90
28520;DHT22;15732;48.534;20.382;2023-03-12T07:21:15;3.30;99.90
28520;DHT22;15732;48.534;20.382;2023-03-12T07:23:52;3.40;99.90
28520;DHT22;15732;48.534;20.382;2023-03-12T07:26:19;3.50;99.90
28520;DHT22;15732;48.534;20.382;2023-03-12T07:28:46;3.60;99.90
28520;DHT22;15732;48.534;20.382;2023-03-12T07:31:13;3.70;99.90
28520;DHT22;15732;48.534;20.382;2023-03-12T07:33:40;3.70;99.90
28520;DHT22;15732;48.534;20.382;2023-03-12T07:36:08;3.80;99.90
28520;DHT22;15732;48.534;20.382;2023-03-12T07:38:35;3.90;99.90
28520;DHT22;15732;48.534;20.382;2023-03-12T07:41:07;4.00;99.90
28520;DHT22;15732;48.534;20.382;2023-03-12T07:43:38;4.10;99.90
28520;DHT22;15732;48.534;20.382;2023-03-12T07:46:05;4.10;99.90
28520;DHT22;15732;48.534;20.382;2023-03-12T07:48:33;4.30;99.90
28520;DHT22;15732;48.534;20.382;2023-03-12T07:51:00;4.40;99.90
28520;DHT22;15732;48.534;20.382;2023-03-12T07:53:27;4.50;99.90
28520;DHT22;15732;48.534;20.382;2023-03-12T07:55:54;4.70;99.90
28520;DHT22;15732;48.534;20.382;2023-03-12T07:58:21;4.80;99.90
28520;DHT22;15732;48.534;20.382;2023-03-12T08:00:55;4.90;99.90
28520;DHT22;15732;48.534;20.382;2023-03-12T08:03:21;5.00;99.90
28520;DHT22;15732;48.534;20.382;2023-03-12T08:05:57;5.10;99.90
28520;DHT22;15732;48.534;20.382;2023-03-12T08:08:25;5.10;99.90
28520;DHT22;15732;48.534;20.382;2023-03-12T08:10:56;5.20;99.90
28520;DHT22;15732;48.534;20.382;2023-03-12T08:13:24;5.40;99.90
28520;DHT22;15732;48.534;20.382;2023-03-12T08:15:52;5.60;99.90
28520;DHT22;15732;48.534;20.382;2023-03-12T08:18:20;5.70;99.90
28520;DHT22;15732;48.534;20.382;2023-03-12T08:20:53;5.90;99.90
28520;DHT22;15732;48.534;20.382;2023-03-12T08:23:22;6.00;99.90
28520;DHT22;15732;48.534;20.382;2023-03-12T08:25:50;6.20;99.90
28520;DHT22;15732;48.534;20.382;2023-03-12T08:28:17;6.30;99.90
28520;DHT22;15732;48.534;20.382;2023-03-12T08:30:50;6.40;99.90
28520;DHT22;15732;48.534;20.382;2023-03-12T08:33:17;6.40;99.90
28520;DHT22;15732;48.534;20.382;2023-03-12T08:35:44;6.40;99.90
28520;DHT22;15732;48.534;20.382;2023-03-12T08:38:11;6.50;99.90
28520;DHT22;15732;48.534;20.382;2023-03-12T08:40:38;6.60;99.90
28520;DHT22;15732;48.534;20.382;2023-03-12T08:43:09;6.70;99.90
28520;DHT22;15732;48.534;20.382;2023-03-12T08:45:37;6.70;99.90
28520;DHT22;15732;48.534;20.382;2023-03-12T08:48:05;6.80;99.90
28520;DHT22;15732;48.534;20.382;2023-03-12T08:50:32;6.90;99.90
28520;DHT22;15732;48.534;20.382;2023-03-12T08:52:59;7.00;99.90
28520;DHT22;15732;48.534;20.382;2023-03-12T08:55:27;7.00;99.90
28520;DHT22;15732;48.534;20.382;2023-03-12T08:57:55;7.10;99.90
28520;DHT22;15732;48.534;20.382;2023-03-12T09:00:26;7.20;99.90
28520;DHT22;15732;48.534;20.382;2023-03-12T09:02:53;7.30;99.90
28520;DHT22;15732;48.534;20.382;2023-03-12T09:05:24;7.30;99.90
28520;DHT22;15732;48.534;20.382;2023-03-12T09:07:58;7.40;99.90
28520;DHT22;15732;48.534;20.382;2023-03-12T09:10:29;7.40;99.90
28520;DHT22;15732;48.534;20.382;2023-03-12T09:13:01;7.40;99.90
28520;DHT22;15732;48.534;20.382;2023-03-12T09:15:28;7.50;99.90
28520;DHT22;15732;48.534;20.382;2023-03-12T09:17:56;7.50;99.90
28520;DHT22;15732;48.534;20.382;2023-03-12T09:20:24;7.50;99.90
28520;DHT22;15732;48.534;20.382;2023-03-12T09:22:51;7.40;97.50
28520;DHT22;15732;48.534;20.382;2023-03-12T09:25:22;7.50;97.40
28520;DHT22;15732;48.534;20.382;2023-03-12T09:27:53;7.50;98.80
28520;DHT22;15732;48.534;20.382;2023-03-12T09:30:25;7.60;97.60
28520;DHT22;15732;48.534;20.382;2023-03-12T09:32:55;7.60;98.00
28520;DHT22;15732;48.534;20.382;2023-03-12T09:35:27;7.60;97.50
28520;DHT22;15732;48.534;20.382;2023-03-12T09:37:54;7.70;97.90
28520;DHT22;15732;48.534;20.382;2023-03-12T09:40:24;7.70;97.10
28520;DHT22;15732;48.534;20.382;2023-03-12T09:42:59;7.80;97.50
28520;DHT22;15732;48.534;20.382;2023-03-12T09:45:31;7.80;96.50
28520;DHT22;15732;48.534;20.382;2023-03-12T09:48:09;7.80;97.70
28520;DHT22;15732;48.534;20.382;2023-03-12T09:50:46;7.90;96.30
28520;DHT22;15732;48.534;20.382;2023-03-12T09:55:51;8.10;96.50
28520;DHT22;15732;48.534;20.382;2023-03-12T09:58:33;8.10;96.20
28520;DHT22;15732;48.534;20.382;2023-03-12T10:09:34;8.00;96.20
28520;DHT22;15732;48.534;20.382;2023-03-12T10:20:39;8.20;94.40
28520;DHT22;15732;48.534;20.382;2023-03-12T10:24:00;8.30;95.10
28520;DHT22;15732;48.534;20.382;2023-03-12T10:26:37;8.40;95.10
28520;DHT22;15732;48.534;20.382;2023-03-12T10:29:34;8.50;93.80
28520;DHT22;15732;48.534;20.382;2023-03-12T10:35:15;8.50;93.60
28520;DHT22;15732;48.534;20.382;2023-03-12T10:37:58;8.60;93.40
28520;DHT22;15732;48.534;20.382;2023-03-12T10:40:52;8.60;92.40
28520;DHT22;15732;48.534;20.382;2023-03-12T10:43:19;8.60;92.30
28520;DHT22;15732;48.534;20.382;2023-03-12T10:46:28;8.60;92.00
28520;DHT22;15732;48.534;20.382;2023-03-12T10:49:49;8.60;90.70
28520;DHT22;15732;48.534;20.382;2023-03-12T10:52:22;8.60;90.10
28520;DHT22;15732;48.534;20.382;2023-03-12T10:54:52;8.50;90.20
28520;DHT22;15732;48.534;20.382;2023-03-12T10:57:38;8.50;92.20
28520;DHT22;15732;48.534;20.382;2023-03-12T11:00:15;8.50;89.40
28520;DHT22;15732;48.534;20.382;2023-03-12T11:02:44;8.50;91.00
28520;DHT22;15732;48.534;20.382;2023-03-12T11:05:24;8.50;89.70
28520;DHT22;15732;48.534;20.382;2023-03-12T11:07:56;8.60;90.40
28520;DHT22;15732;48.534;20.382;2023-03-12T11:10:41;8.60;90.40
28520;DHT22;15732;48.534;20.382;2023-03-12T11:13:32;8.70;90.20
28520;DHT22;15732;48.534;20.382;2023-03-12T11:18:57;8.70;88.30
28520;DHT22;15732;48.534;20.382;2023-03-12T11:21:31;8.70;86.20
28520;DHT22;15732;48.534;20.382;2023-03-12T11:26:31;8.80;88.10
28520;DHT22;15732;48.534;20.382;2023-03-12T11:31:49;8.80;84.20
28520;DHT22;15732;48.534;20.382;2023-03-12T11:34:25;8.70;84.00
28520;DHT22;15732;48.534;20.382;2023-03-12T11:45:20;8.60;85.30
28520;DHT22;15732;48.534;20.382;2023-03-12T11:56:29;8.50;87.10
28520;DHT22;15732;48.534;20.382;2023-03-12T12:12:49;8.50;84.20
28520;DHT22;15732;48.534;20.382;2023-03-12T12:15:32;8.50;88.60
28520;DHT22;15732;48.534;20.382;2023-03-12T12:20:57;8.60;85.20
28520;DHT22;15732;48.534;20.382;2023-03-12T12:24:23;8.60;89.20
28520;DHT22;15732;48.534;20.382;2023-03-12T12:26:45;8.60;85.90
28520;DHT22;15732;48.534;20.382;2023-03-12T12:32:16;8.60;89.30
28520;DHT22;15732;48.534;20.382;2023-03-12T12:40:47;8.60;86.10
28520;DHT22;15732;48.534;20.382;2023-03-12T12:43:27;8.70;85.30
28520;DHT22;15732;48.534;20.382;2023-03-12T12:46:02;8.70;84.60
28520;DHT22;15732;48.534;20.382;2023-03-12T12:51:12;8.70;84.80
28520;DHT22;15732;48.534;20.382;2023-03-12T12:56:30;8.80;85.60
28520;DHT22;15732;48.534;20.382;2023-03-12T13:01:55;8.80;82.70
28520;DHT22;15732;48.534;20.382;2023-03-12T13:04:35;8.80;82.50
28520;DHT22;15732;48.534;20.382;2023-03-12T13:09:54;8.70;81.90
28520;DHT22;15732;48.534;20.382;2023-03-12T13:12:35;8.80;84.30
28520;DHT22;15732;48.534;20.382;2023-03-12T13:26:07;8.80;84.60
28520;DHT22;15732;48.534;20.382;2023-03-12T13:33:58;8.90;83.20
28520;DHT22;15732;48.534;20.382;2023-03-12T13:36:37;9.00;85.50
28520;DHT22;15732;48.534;20.382;2023-03-12T13:41:48;9.00;84.80
28520;DHT22;15732;48.534;20.382;2023-03-12T13:49:40;9.00;83.60
28520;DHT22;15732;48.534;20.382;2023-03-12T13:55:19;9.00;85.80
28520;DHT22;15732;48.534;20.382;2023-03-12T13:58:17;9.00;82.90
28520;DHT22;15732;48.534;20.382;2023-03-12T14:01:10;9.00;82.20
28520;DHT22;15732;48.534;20.382;2023-03-12T14:03:43;9.00;81.60
28520;DHT22;15732;48.534;20.382;2023-03-12T14:06:19;9.00;82.70
28520;DHT22;15732;48.534;20.382;2023-03-12T14:17:29;9.00;81.70
28520;DHT22;15732;48.534;20.382;2023-03-12T14:20:09;9.00;83.10
28520;DHT22;15732;48.534;20.382;2023-03-12T14:22:38;9.00;81.10
28520;DHT22;15732;48.534;20.382;2023-03-12T14:25:36;9.00;82.30
28520;DHT22;15732;48.534;20.382;2023-03-12T14:28:21;9.00;81.60
28520;DHT22;15732;48.534;20.382;2023-03-12T14:33:26;9.00;81.40
28520;DHT22;15732;48.534;20.382;2023-03-12T14:35:59;9.00;82.20
28520;DHT22;15732;48.534;20.382;2023-03-12T14:38:31;9.00;81.10
28520;DHT22;15732;48.534;20.382;2023-03-12T14:41:11;9.00;81.90
28520;DHT22;15732;48.534;20.382;2023-03-12T14:43:44;9.00;79.40
28520;DHT22;15732;48.534;20.382;2023-03-12T14:46:22;9.00;81.30
28520;DHT22;15732;48.534;20.382;2023-03-12T14:48:53;9.00;80.80
28520;DHT22;15732;48.534;20.382;2023-03-12T14:51:27;9.00;80.00
28520;DHT22;15732;48.534;20.382;2023-03-12T14:53:55;9.00;80.10
28520;DHT22;15732;48.534;20.382;2023-03-12T14:56:29;9.00;82.30
28520;DHT22;15732;48.534;20.382;2023-03-12T14:58:59;9.00;81.40
28520;DHT22;15732;48.534;20.382;2023-03-12T15:01:32;9.00;84.30
28520;DHT22;15732;48.534;20.382;2023-03-12T15:04:17;9.00;82.40
28520;DHT22;15732;48.534;20.382;2023-03-12T15:06:53;8.90;77.90
28520;DHT22;15732;48.534;20.382;2023-03-12T15:09:27;8.90;80.80
28520;DHT22;15732;48.534;20.382;2023-03-12T15:12:02;8.90;78.70
28520;DHT22;15732;48.534;20.382;2023-03-12T15:14:40;8.90;79.70
28520;DHT22;15732;48.534;20.382;2023-03-12T15:17:16;8.90;78.50
28520;DHT22;15732;48.534;20.382;2023-03-12T15:19:44;8.80;77.30
28520;DHT22;15732;48.534;20.382;2023-03-12T15:22:18;8.80;77.70
28520;DHT22;15732;48.534;20.382;2023-03-12T15:24:49;8.80;79.70
28520;DHT22;15732;48.534;20.382;2023-03-12T15:27:36;8.80;82.20
28520;DHT22;15732;48.534;20.382;2023-03-12T15:30:23;8.80;78.10
28520;DHT22;15732;48.534;20.382;2023-03-12T15:35:59;8.60;80.70
28520;DHT22;15732;48.534;20.382;2023-03-12T15:38:28;8.60;81.40
28520;DHT22;15732;48.534;20.382;2023-03-12T15:40:58;8.50;84.10
28520;DHT22;15732;48.534;20.382;2023-03-12T15:43:31;8.50;84.40
28520;DHT22;15732;48.534;20.382;2023-03-12T15:46:00;8.40;83.70
28520;DHT22;15732;48.534;20.382;2023-03-12T15:48:31;8.40;84.40
28520;DHT22;15732;48.534;20.382;2023-03-12T15:50:58;8.40;84.20
28520;DHT22;15732;48.534;20.382;2023-03-12T15:53:32;8.30;85.90
28520;DHT22;15732;48.534;20.382;2023-03-12T15:56:20;8.30;85.50
28520;DHT22;15732;48.534;20.382;2023-03-12T15:59:00;8.30;85.90
28520;DHT22;15732;48.534;20.382;2023-03-12T16:01:28;8.20;85.80
28520;DHT22;15732;48.534;20.382;2023-03-12T16:03:55;8.20;85.00
28520;DHT22;15732;48.534;20.382;2023-03-12T16:06:25;8.10;84.70
28520;DHT22;15732;48.534;20.382;2023-03-12T16:09:00;8.10;84.20
28520;DHT22;15732;48.534;20.382;2023-03-12T16:11:36;8.10;84.50
28520;DHT22;15732;48.534;20.382;2023-03-12T16:14:05;8.10;84.90
28520;DHT22;15732;48.534;20.382;2023-03-12T16:16:36;8.10;85.00
28520;DHT22;15732;48.534;20.382;2023-03-12T16:19:10;8.10;85.10
28520;DHT22;15732;48.534;20.382;2023-03-12T16:21:42;8.10;85.50
28520;DHT22;15732;48.534;20.382;2023-03-12T16:24:13;8.00;85.80
28520;DHT22;15732;48.534;20.382;2023-03-12T16:26:48;8.00;86.60
28520;DHT22;15732;48.534;20.382;2023-03-12T16:29:30;8.00;85.70
28520;DHT22;15732;48.534;20.382;2023-03-12T16:31:57;8.00;86.50
28520;DHT22;15732;48.534;20.382;2023-03-12T16:34:28;7.90;86.00
28520;DHT22;15732;48.534;20.382;2023-03-12T16:36:56;7.90;85.90
28520;DHT22;15732;48.534;20.382;2023-03-12T16:39:23;7.90;84.70
28520;DHT22;15732;48.534;20.382;2023-03-12T16:41:55;7.80;86.20
28520;DHT22;15732;48.534;20.382;2023-03-12T16:44:29;7.80;86.00
28520;DHT22;15732;48.534;20.382;2023-03-12T16:47:00;7.80;87.00
28520;DHT22;15732;48.534;20.382;2023-03-12T16:49:28;7.80;87.60
28520;DHT22;15732;48.534;20.382;2023-03-12T16:51:55;7.80;87.70
28520;DHT22;15732;48.534;20.382;2023-03-12T16:54:23;7.70;87.50
28520;DHT22;15732;48.534;20.382;2023-03-12T16:56:54;7.70;87.50
28520;DHT22;15732;48.534;20.382;2023-03-12T16:59:26;7.70;87.30
28520;DHT22;15732;48.534;20.382;2023-03-12T17:01:54;7.70;88.10
28520;DHT22;15732;48.534;20.382;2023-03-12T17:04:21;7.60;88.20
28520;DHT22;15732;48.534;20.382;2023-03-12T17:06:51;7.60;88.40
28520;DHT22;15732;48.534;20.382;2023-03-12T17:09:18;7.60;89.40
28520;DHT22;15732;48.534;20.382;2023-03-12T17:11:50;7.60;89.60
28520;DHT22;15732;48.534;20.382;2023-03-12T17:14:19;7.60;89.60
28520;DHT22;15732;48.534;20.382;2023-03-12T17:16:48;7.50;89.50
28520;DHT22;15732;48.534;20.382;2023-03-12T17:19:15;7.50;89.80
28520;DHT22;15732;48.534;20.382;2023-03-12T17:21:43;7.50;89.60
28520;DHT22;15732;48.534;20.382;2023-03-12T17:24:12;7.40;90.20
28520;DHT22;15732;48.534;20.382;2023-03-12T17:26:43;7.40;90.40
28520;DHT22;15732;48.534;20.382;2023-03-12T17:29:12;7.30;90.50
28520;DHT22;15732;48.534;20.382;2023-03-12T17:31:43;7.20;90.70
28520;DHT22;15732;48.534;20.382;2023-03-12T17:34:14;7.20;91.10
28520;DHT22;15732;48.534;20.382;2023-03-12T17:36:46;7.10;91.40
28520;DHT22;15732;48.534;20.382;2023-03-12T17:39:16;7.00;91.70
28520;DHT22;15732;48.534;20.382;2023-03-12T17:41:48;7.00;91.80
28520;DHT22;15732;48.534;20.382;2023-03-12T17:44:19;7.00;91.90
28520;DHT22;15732;48.534;20.382;2023-03-12T17:46:46;6.90;92.10
28520;DHT22;15732;48.534;20.382;2023-03-12T17:49:14;6.90;92.50
28520;DHT22;15732;48.534;20.382;2023-03-12T17:51:41;6.90;92.60
28520;DHT22;15732;48.534;20.382;2023-03-12T17:54:10;6.90;92.70
28520;DHT22;15732;48.534;20.382;2023-03-12T17:56:38;6.90;92.80
28520;DHT22;15732;48.534;20.382;2023-03-12T17:59:05;6.80;93.20
28520;DHT22;15732;48.534;20.382;2023-03-12T18:01:32;6.80;93.00
28520;DHT22;15732;48.534;20.382;2023-03-12T18:03:58;6.80;93.20
28520;DHT22;15732;48.534;20.382;2023-03-12T18:06:26;6.80;93.20
28520;DHT22;15732;48.534;20.382;2023-03-12T18:08:54;6.70;93.60
28520;DHT22;15732;48.534;20.382;2023-03-12T18:11:21;6.50;93.70